| Date | Time | Temp. (oF) | Dew Point (oF) | Rel. Hum. (%) | Press. (in.) | Wind Dir. | Wind Speed (mph) | Hourly Rainfall (in.) |
|
|---|---|---|---|---|---|---|---|---|---|
| 1 | 07/02 | 00:00 | 77 | 74 | 91 | 29.74 | SSW | 3 | 0.00 |
| 2 | 07/01 | 23:00 | 77 | 74 | 91 | 29.73 | SSE | 4 | 0.00 |
| 3 | 07/01 | 22:00 | 80 | 75 | 86 | 29.73 | SE | 2 | 0.00 |
| 4 | 07/01 | 21:00 | 82 | 76 | 83 | 29.71 | E | 2 | 0.00 |
| 5 | 07/01 | 20:00 | 84 | 76 | 79 | 29.70 | SSE | 1 | 0.00 |
| 6 | 07/01 | 19:00 | 84 | 75 | 75 | 29.67 | E | 1 | 0.00 |
| 7 | 07/01 | 18:00 | 85 | 75 | 74 | 29.69 | ESE | 3 | 0.00 |
| 8 | 07/01 | 17:00 | 83 | 74 | 77 | 29.69 | S | 2 | 0.00 |
| 9 | 07/01 | 16:00 | 79 | 71 | 79 | 29.74 | SSE | 9 | 0.00 |
| 10 | 07/01 | 15:00 | 88 | 72 | 60 | 29.73 | SW | 4 | 0.00 |
| 11 | 07/01 | 14:00 | 87 | 73 | 64 | 29.74 | S | 9 | 0.00 |
| 12 | 07/01 | 13:00 | 87 | 75 | 69 | 29.75 | SW | 4 | 0.00 |
| 13 | 07/01 | 12:00 | 84 | 73 | 72 | 29.76 | E | 1 | 0.00 |
| 14 | 07/01 | 11:00 | 83 | 74 | 76 | 29.77 | WSW | 4 | 0.00 |
| 15 | 07/01 | 10:00 | 79 | 76 | 92 | 29.79 | E | 3 | 0.00 |
| 16 | 07/01 | 09:00 | 76 | 76 | 100 | 29.81 | SSE | 1 | 0.00 |
| 17 | 07/01 | 08:00 | 74 | 73 | 100 | 29.82 | E | 0 | 0.00 |
| 18 | 07/01 | 07:00 | 72 | 72 | 100 | 29.82 | ENE | 0 | 0.00 |
| 19 | 07/01 | 06:00 | 72 | 72 | 100 | 29.81 | ENE | 0 | 0.00 |
| 20 | 07/01 | 05:00 | 72 | 71 | 99 | 29.80 | ESE | 0 | 0.00 |
| 21 | 07/01 | 04:00 | 72 | 71 | 97 | 29.80 | S | 0 | 0.00 |
| 22 | 07/01 | 03:00 | 73 | 71 | 96 | 29.81 | S | 0 | 0.00 |
| 23 | 07/01 | 02:00 | 74 | 72 | 95 | 29.82 | SSW | 0 | 0.00 |
| 24 | 07/01 | 01:00 | 75 | 72 | 92 | 29.82 | ESE | 0 | 0.00 |